Time;durP1;ratioP1;P1;durP2;ratioP2;P2;SDS_P1;SDS_P2;PMS_P1;PMS_P2;Temp;Humidity;BMP_temperature;BMP_pressure;BME280_temperature;BME280_humidity;BME280_pressure;Samples;Min_cycle;Max_cycle;Signal;HPM_P1;HPM_P2
2022/04/26 03:36:39;;;;;;;13.40;4.82;;;;;;;;;;5083711;28;20051;-74
2022/04/26 03:39:06;;;;;;;10.70;4.60;;;;;;;;;;5083526;28;20085;-73
2022/04/26 03:41:33;;;;;;;9.75;4.68;;;;;;;;;;5082578;28;20077;-72
2022/04/26 03:43:58;;;;;;;10.55;4.53;;;;;;;;;;5083712;28;20029;-74
2022/04/26 03:46:24;;;;;;;9.85;4.60;;;;;;;;;;5082724;28;20514;-74
2022/04/26 03:48:50;;;;;;;17.15;4.80;;;;;;;;;;5082782;28;20028;-73
2022/04/26 03:51:15;;;;;;;11.65;4.40;;;;;;;;;;5083193;28;20016;-68
2022/04/26 03:53:41;;;;;;;11.35;4.57;;;;;;;;;;5083490;28;20040;-74
2022/04/26 03:56:06;;;;;;;8.48;4.30;;;;;;;;;;5082909;28;20316;-72
2022/04/26 03:58:33;;;;;;;9.07;4.20;;;;;;;;;;5082856;28;20495;-73
2022/04/26 04:00:59;;;;;;;9.55;4.32;;;;;;;;;;5083039;28;20083;-73
2022/04/26 04:03:25;;;;;;;9.48;4.30;;;;;;;;;;5083041;28;20052;-73
2022/04/26 04:05:50;;;;;;;9.57;4.45;;;;;;;;;;5082820;28;20089;-68
2022/04/26 04:08:16;;;;;;;7.43;4.25;;;;;;;;;;5083460;28;20089;-72
2022/04/26 04:10:41;;;;;;;12.02;4.45;;;;;;;;;;5083084;28;20021;-68
2022/04/26 04:13:06;;;;;;;8.68;4.25;;;;;;;;;;5082843;28;20028;-73
2022/04/26 04:15:32;;;;;;;11.90;4.60;;;;;;;;;;5082845;28;20032;-73
2022/04/26 04:17:58;;;;;;;9.38;4.28;;;;;;;;;;5082507;28;20080;-73
2022/04/26 04:20:23;;;;;;;11.80;4.40;;;;;;;;;;5082852;28;20471;-68
2022/04/26 04:22:49;;;;;;;9.68;3.92;;;;;;;;;;5082871;28;20030;-73
2022/04/26 04:25:15;;;;;;;8.43;4.20;;;;;;;;;;5082574;28;20051;-73
2022/04/26 04:27:42;;;;;;;11.23;4.10;;;;;;;;;;5082432;28;20096;-72
2022/04/26 04:30:08;;;;;;;10.05;4.20;;;;;;;;;;5082343;28;20052;-72
2022/04/26 04:32:34;;;;;;;9.55;4.25;;;;;;;;;;5082851;28;20397;-73
2022/04/26 04:34:59;;;;;;;7.72;4.00;;;;;;;;;;5081791;28;20025;-69
2022/04/26 04:37:25;;;;;;;9.75;4.50;;;;;;;;;;5082100;28;20215;-69
2022/04/26 04:39:50;;;;;;;10.55;4.18;;;;;;;;;;5082084;28;20189;-73
2022/04/26 04:42:16;;;;;;;9.45;4.32;;;;;;;;;;5080874;28;20041;-69
2022/04/26 04:44:41;;;;;;;9.73;4.30;;;;;;;;;;5081287;28;20292;-69
2022/04/26 04:47:07;;;;;;;8.65;4.30;;;;;;;;;;5082294;28;20016;-72
2022/04/26 04:49:33;;;;;;;9.00;4.25;;;;;;;;;;5082329;28;20324;-70
2022/04/26 04:51:58;;;;;;;17.17;4.70;;;;;;;;;;5081701;28;20028;-74
2022/04/26 04:54:23;;;;;;;12.20;4.65;;;;;;;;;;5081730;28;20204;-74
2022/04/26 04:56:49;;;;;;;9.23;4.38;;;;;;;;;;5081520;28;20032;-74
2022/04/26 04:59:16;;;;;;;11.38;5.47;;;;;;;;;;5082464;28;20036;-71
2022/04/26 05:01:42;;;;;;;11.82;4.57;;;;;;;;;;5082044;28;20020;-74
2022/04/26 05:04:08;;;;;;;11.77;5.25;;;;;;;;;;5081529;28;20039;-72
2022/04/26 05:06:33;;;;;;;8.55;4.50;;;;;;;;;;5081914;28;20073;-70
2022/04/26 05:08:59;;;;;;;11.43;4.95;;;;;;;;;;5082066;28;20032;-75
2022/04/26 05:11:24;;;;;;;9.02;4.50;;;;;;;;;;5081861;28;20047;-74
2022/04/26 05:13:49;;;;;;;9.25;4.60;;;;;;;;;;5082238;28;20054;-75
2022/04/26 05:16:15;;;;;;;12.68;4.75;;;;;;;;;;5081878;28;20029;-74
2022/04/26 05:18:40;;;;;;;9.95;5.05;;;;;;;;;;5081465;28;20048;-73
2022/04/26 05:21:10;;;;;;;10.55;4.75;;;;;;;;;;5082181;28;20387;-70
2022/04/26 05:26:20;;;;;;;9.75;4.80;;;;;;;;;;5079812;28;20120;-73
2022/04/26 05:28:46;;;;;;;16.30;5.28;;;;;;;;;;5077776;28;20052;-74
2022/04/26 05:31:12;;;;;;;14.10;5.63;;;;;;;;;;5076760;28;20240;-72
2022/04/26 05:33:38;;;;;;;16.40;5.57;;;;;;;;;;5073010;28;20287;-68
2022/04/26 05:36:03;;;;;;;15.93;5.40;;;;;;;;;;5071494;28;20491;-71
2022/04/26 05:38:29;;;;;;;15.00;5.65;;;;;;;;;;5070875;28;20158;-72
2022/04/26 05:40:54;;;;;;;11.15;5.60;;;;;;;;;;5072647;28;20355;-72
2022/04/26 05:43:20;;;;;;;15.77;5.78;;;;;;;;;;5071766;28;20025;-69
2022/04/26 05:45:46;;;;;;;12.52;5.60;;;;;;;;;;5071857;28;20031;-71
2022/04/26 05:48:13;;;;;;;14.40;6.22;;;;;;;;;;5071462;28;20048;-75
2022/04/26 05:50:39;;;;;;;9.75;5.78;;;;;;;;;;5071716;28;20024;-71
2022/04/26 05:53:05;;;;;;;12.75;5.80;;;;;;;;;;5072114;28;20040;-73
2022/04/26 05:55:30;;;;;;;13.52;5.95;;;;;;;;;;5072736;28;20066;-73
2022/04/26 05:57:55;;;;;;;10.43;5.88;;;;;;;;;;5081537;28;20036;-72
2022/04/26 06:00:21;;;;;;;16.50;6.22;;;;;;;;;;5081212;28;20099;-73
2022/04/26 06:02:48;;;;;;;12.07;5.60;;;;;;;;;;5081092;28;20047;-72
2022/04/26 06:05:14;;;;;;;15.27;5.63;;;;;;;;;;5081311;28;20032;-70
2022/04/26 06:07:40;;;;;;;13.20;5.50;;;;;;;;;;5081426;28;20229;-74
2022/04/26 06:10:06;;;;;;;15.13;5.72;;;;;;;;;;5080948;28;20020;-72
2022/04/26 06:12:31;;;;;;;13.13;5.50;;;;;;;;;;5081301;28;20040;-74
2022/04/26 06:14:58;;;;;;;15.27;5.38;;;;;;;;;;5079854;28;20032;-69
2022/04/26 06:17:23;;;;;;;12.95;5.50;;;;;;;;;;5080726;28;20040;-71
2022/04/26 06:19:49;;;;;;;13.90;4.68;;;;;;;;;;5080529;28;20024;-70
2022/04/26 06:22:15;;;;;;;20.30;6.28;;;;;;;;;;5072774;28;20032;-68
2022/04/26 06:24:40;;;;;;;15.73;6.13;;;;;;;;;;5079906;28;20035;-70
2022/04/26 06:27:06;;;;;;;13.63;5.30;;;;;;;;;;5077761;28;20028;-69
2022/04/26 06:29:32;;;;;;;16.55;6.13;;;;;;;;;;5079346;28;20087;-69
2022/04/26 06:31:58;;;;;;;12.27;5.68;;;;;;;;;;5079960;28;20108;-75
2022/04/26 06:34:24;;;;;;;14.55;6.32;;;;;;;;;;5080164;28;20091;-71
2022/04/26 06:36:49;;;;;;;13.10;6.05;;;;;;;;;;5080430;28;20031;-74
2022/04/26 06:39:15;;;;;;;12.95;6.13;;;;;;;;;;5080351;28;20047;-70
2022/04/26 06:41:40;;;;;;;12.88;5.88;;;;;;;;;;5080415;28;20079;-71
2022/04/26 06:44:06;;;;;;;17.17;5.82;;;;;;;;;;5080278;28;20321;-71
2022/04/26 06:46:31;;;;;;;17.02;6.57;;;;;;;;;;5081082;28;20031;-73
2022/04/26 06:48:59;;;;;;;14.80;5.97;;;;;;;;;;5079869;28;20372;-75
2022/04/26 06:51:25;;;;;;;13.60;6.32;;;;;;;;;;5080510;28;20194;-73
2022/04/26 06:53:51;;;;;;;14.70;5.45;;;;;;;;;;5079542;28;20028;-73
2022/04/26 06:56:16;;;;;;;16.52;6.57;;;;;;;;;;5079794;28;20020;-73
2022/04/26 06:58:42;;;;;;;13.85;5.28;;;;;;;;;;5079555;28;20343;-75
2022/04/26 07:01:07;;;;;;;14.63;6.05;;;;;;;;;;5079980;28;20020;-73
2022/04/26 07:03:33;;;;;;;14.30;6.10;;;;;;;;;;5079757;28;20439;-74
2022/04/26 07:05:58;;;;;;;15.50;6.68;;;;;;;;;;5079544;28;20025;-74
2022/04/26 07:08:24;;;;;;;18.17;6.30;;;;;;;;;;5080021;28;20457;-73
2022/04/26 07:10:49;;;;;;;16.92;5.88;;;;;;;;;;5080025;28;20255;-73
2022/04/26 07:13:18;;;;;;;17.55;5.85;;;;;;;;;;5079963;28;20028;-73
2022/04/26 07:15:44;;;;;;;11.73;5.60;;;;;;;;;;5079893;28;20032;-74
2022/04/26 07:18:12;;;;;;;15.68;4.90;;;;;;;;;;5079988;28;20035;-73
2022/04/26 07:20:38;;;;;;;12.50;4.85;;;;;;;;;;5079337;28;20032;-73
2022/04/26 07:23:03;;;;;;;19.80;5.32;;;;;;;;;;5079356;28;20332;-72
2022/04/26 07:25:29;;;;;;;22.10;5.07;;;;;;;;;;5079571;28;20092;-71
2022/04/26 07:27:54;;;;;;;12.95;5.25;;;;;;;;;;5079620;28;20368;-74
2022/04/26 07:30:19;;;;;;;11.57;5.07;;;;;;;;;;5079571;28;20026;-74
2022/04/26 07:35:29;;;;;;;14.85;4.20;;;;;;;;;;5079656;28;20032;-72
2022/04/26 07:38:04;;;;;;;12.93;4.30;;;;;;;;;;5079791;28;20024;-73
2022/04/26 07:40:30;;;;;;;11.93;4.60;;;;;;;;;;5079417;28;20075;-73
2022/04/26 07:42:56;;;;;;;16.10;5.55;;;;;;;;;;5079698;28;20039;-73
2022/04/26 07:45:22;;;;;;;14.48;5.25;;;;;;;;;;5079702;28;20052;-73
2022/04/26 07:47:47;;;;;;;14.15;4.30;;;;;;;;;;5079569;28;20275;-75
2022/04/26 07:50:13;;;;;;;17.23;4.15;;;;;;;;;;5078997;28;20043;-75
2022/04/26 07:52:38;;;;;;;9.68;3.60;;;;;;;;;;5080268;28;20039;-74
2022/04/26 07:55:04;;;;;;;13.35;3.65;;;;;;;;;;5079443;28;20086;-73
2022/04/26 07:57:29;;;;;;;11.70;3.95;;;;;;;;;;5079819;28;20028;-76
2022/04/26 07:59:55;;;;;;;8.48;3.47;;;;;;;;;;5079667;28;20224;-72
2022/04/26 08:02:22;;;;;;;10.73;3.22;;;;;;;;;;5080233;28;20055;-71
2022/04/26 08:04:48;;;;;;;12.20;3.60;;;;;;;;;;5079314;28;20220;-73
2022/04/26 08:07:13;;;;;;;10.23;3.78;;;;;;;;;;5079636;28;20025;-73
2022/04/26 08:09:39;;;;;;;10.20;3.42;;;;;;;;;;5078996;28;20252;-75
2022/04/26 08:12:05;;;;;;;19.23;4.00;;;;;;;;;;5079088;28;20342;-71
2022/04/26 08:14:31;;;;;;;13.23;3.65;;;;;;;;;;5079921;28;20039;-75
2022/04/26 08:16:56;;;;;;;10.88;3.45;;;;;;;;;;5079231;28;20082;-73
2022/04/26 08:19:22;;;;;;;12.27;3.65;;;;;;;;;;5081031;28;20028;-71
2022/04/26 08:21:47;;;;;;;14.43;3.83;;;;;;;;;;5082485;28;20020;-71
2022/04/26 08:29:41;;;;;;;11.70;3.45;;;;;;;;;;5082622;28;20024;-74
2022/04/26 08:32:07;;;;;;;11.50;3.30;;;;;;;;;;5082171;28;20029;-74
2022/04/26 08:34:33;;;;;;;8.82;3.30;;;;;;;;;;5081941;28;20092;-74
2022/04/26 08:36:58;;;;;;;9.77;3.00;;;;;;;;;;5082520;28;20032;-72
2022/04/26 08:39:24;;;;;;;9.65;3.28;;;;;;;;;;5082221;28;20032;-74
2022/04/26 08:41:49;;;;;;;8.85;2.90;;;;;;;;;;5082570;28;20043;-76
2022/04/26 08:44:15;;;;;;;10.85;3.40;;;;;;;;;;5082393;28;20090;-75
2022/04/26 08:52:09;;;;;;;11.20;3.35;;;;;;;;;;5082635;28;20028;-73
2022/04/26 08:54:35;;;;;;;11.07;3.30;;;;;;;;;;5081890;28;20029;-73
2022/04/26 08:57:02;;;;;;;9.73;3.40;;;;;;;;;;5074203;28;20250;-72
2022/04/26 08:59:28;;;;;;;11.05;3.75;;;;;;;;;;5073260;28;20216;-73
2022/04/26 09:02:18;;;;;;;12.93;3.70;;;;;;;;;;5076807;28;20025;-72
2022/04/26 09:04:44;;;;;;;11.68;3.45;;;;;;;;;;5076185;28;20082;-73
2022/04/26 09:07:27;;;;;;;12.23;3.78;;;;;;;;;;5073597;28;20028;-75
2022/04/26 09:10:31;;;;;;;7.43;3.28;;;;;;;;;;5077659;28;20078;-75
2022/04/26 09:13:09;;;;;;;15.10;3.22;;;;;;;;;;5054100;28;20055;-72
2022/04/26 09:15:41;;;;;;;11.13;3.17;;;;;;;;;;5079220;28;20166;-73
2022/04/26 09:18:29;;;;;;;12.93;3.22;;;;;;;;;;5080511;28;20499;-75
2022/04/26 09:20:56;;;;;;;9.98;3.25;;;;;;;;;;5080830;28;20063;-73
2022/04/26 09:23:27;;;;;;;12.07;3.70;;;;;;;;;;5080309;28;20301;-74
2022/04/26 09:25:54;;;;;;;11.90;3.45;;;;;;;;;;5080560;28;20052;-74
2022/04/26 09:28:26;;;;;;;11.90;3.92;;;;;;;;;;5080178;28;20224;-74
2022/04/26 09:30:52;;;;;;;12.93;3.40;;;;;;;;;;5079541;28;20036;-75
2022/04/26 09:33:38;;;;;;;12.43;3.72;;;;;;;;;;5080815;28;20020;-76
2022/04/26 09:36:10;;;;;;;13.80;3.60;;;;;;;;;;5079541;28;20025;-76
2022/04/26 09:38:38;;;;;;;13.90;3.67;;;;;;;;;;5079621;28;20034;-76
2022/04/26 09:41:11;;;;;;;15.18;3.53;;;;;;;;;;5079410;28;20373;-73
2022/04/26 09:43:38;;;;;;;12.73;3.45;;;;;;;;;;5079886;28;20327;-73
2022/04/26 09:46:04;;;;;;;6.97;3.08;;;;;;;;;;5071514;28;20843;-75
2022/04/26 09:48:35;;;;;;;10.57;3.00;;;;;;;;;;5070210;28;20028;-74
2022/04/26 09:51:03;;;;;;;12.95;3.75;;;;;;;;;;5069684;28;20021;-74
2022/04/26 09:53:32;;;;;;;15.65;3.50;;;;;;;;;;5069853;28;20103;-74
2022/04/26 09:56:00;;;;;;;13.43;3.70;;;;;;;;;;5070272;28;20158;-74
2022/04/26 09:58:27;;;;;;;9.63;3.45;;;;;;;;;;5070628;28;20035;-73
2022/04/26 10:00:54;;;;;;;11.48;3.38;;;;;;;;;;5069414;28;20074;-72
2022/04/26 10:03:41;;;;;;;12.38;3.55;;;;;;;;;;5069594;28;20040;-73
2022/04/26 10:06:08;;;;;;;11.80;3.53;;;;;;;;;;5069213;28;20024;-71
2022/04/26 10:08:35;;;;;;;10.85;3.50;;;;;;;;;;5069755;28;20400;-71
2022/04/26 10:11:02;;;;;;;10.57;3.50;;;;;;;;;;5069565;28;20079;-74
2022/04/26 10:13:38;;;;;;;12.90;3.33;;;;;;;;;;5069588;28;20017;-73
2022/04/26 10:16:12;;;;;;;11.10;3.15;;;;;;;;;;5068920;28;20399;-71
2022/04/26 10:18:43;;;;;;;12.32;3.25;;;;;;;;;;5069420;28;20027;-72
2022/04/26 10:21:09;;;;;;;10.90;3.30;;;;;;;;;;5068952;28;20040;-72
2022/04/26 10:24:10;;;;;;;10.18;3.40;;;;;;;;;;5069626;28;20077;-71
2022/04/26 10:26:36;;;;;;;11.27;3.70;;;;;;;;;;5015620;28;20045;-74
2022/04/26 10:29:24;;;;;;;8.48;3.53;;;;;;;;;;5069400;28;20085;-71
2022/04/26 10:32:00;;;;;;;8.68;3.20;;;;;;;;;;5069662;28;20020;-74
2022/04/26 10:34:31;;;;;;;11.48;3.90;;;;;;;;;;5070106;28;20031;-74
2022/04/26 10:36:59;;;;;;;9.15;3.42;;;;;;;;;;5069313;28;20395;-74
2022/04/26 10:39:27;;;;;;;7.60;2.83;;;;;;;;;;5069312;28;20026;-72
2022/04/26 10:41:54;;;;;;;7.38;2.85;;;;;;;;;;5067515;28;20411;-72
2022/04/26 10:44:22;;;;;;;11.35;3.17;;;;;;;;;;5068554;28;20021;-71
2022/04/26 10:46:57;;;;;;;10.38;3.22;;;;;;;;;;5069719;28;20430;-74
2022/04/26 10:49:26;;;;;;;8.90;3.05;;;;;;;;;;5069934;28;20036;-72
2022/04/26 10:51:56;;;;;;;15.13;3.30;;;;;;;;;;5069326;28;20097;-74
2022/04/26 10:54:51;;;;;;;9.88;3.50;;;;;;;;;;5069153;28;20020;-68
2022/04/26 10:57:22;;;;;;;8.55;3.03;;;;;;;;;;5069232;28;20029;-72
2022/04/26 10:59:51;;;;;;;8.75;3.00;;;;;;;;;;5068957;28;20024;-71
2022/04/26 11:02:21;;;;;;;10.05;3.15;;;;;;;;;;5068710;28;20146;-72
2022/04/26 11:04:54;;;;;;;9.38;3.28;;;;;;;;;;5068961;28;20048;-73
2022/04/26 11:07:25;;;;;;;8.13;2.78;;;;;;;;;;5068650;28;20025;-72
2022/04/26 11:09:53;;;;;;;;;;;;;;;;;;5069305;28;20027;-71
2022/04/26 11:12:22;;;;;;;7.63;2.90;;;;;;;;;;5068762;28;19912;-74
2022/04/26 11:14:49;;;;;;;9.68;3.05;;;;;;;;;;5068367;28;20449;-72
2022/04/26 11:17:16;;;;;;;8.63;2.60;;;;;;;;;;5068398;28;20041;-72
2022/04/26 11:20:00;;;;;;;11.10;3.30;;;;;;;;;;5068914;28;20028;-70
2022/04/26 11:22:27;;;;;;;8.05;2.65;;;;;;;;;;5068588;28;20033;-70
2022/04/26 11:28:00;;;;;;;6.53;2.75;;;;;;;;;;5068576;28;20044;-74
2022/04/26 11:30:29;;;;;;;9.25;2.80;;;;;;;;;;5068267;28;20035;-74
2022/04/26 11:32:59;;;;;;;6.78;2.90;;;;;;;;;;5069924;28;20048;-73
2022/04/26 11:35:26;;;;;;;6.80;2.90;;;;;;;;;;5070446;28;20064;-75
2022/04/26 11:37:53;;;;;;;9.00;2.97;;;;;;;;;;5068746;28;20028;-68
2022/04/26 11:40:24;;;;;;;9.40;3.60;;;;;;;;;;5072948;28;20087;-73
2022/04/26 11:42:50;;;;;;;9.23;3.25;;;;;;;;;;5078570;28;20024;-75
2022/04/26 11:45:16;;;;;;;8.13;2.97;;;;;;;;;;5079189;28;20025;-74
2022/04/26 11:47:41;;;;;;;8.38;2.83;;;;;;;;;;5079717;28;20032;-76
2022/04/26 11:50:08;;;;;;;9.30;2.65;;;;;;;;;;5071318;28;20594;-75
2022/04/26 11:52:34;;;;;;;10.45;3.28;;;;;;;;;;5070774;28;20048;-71
2022/04/26 11:54:59;;;;;;;10.10;3.17;;;;;;;;;;5075995;28;20058;-74
2022/04/26 11:57:24;;;;;;;12.27;2.80;;;;;;;;;;5072882;28;20108;-74
2022/04/26 11:59:50;;;;;;;7.10;2.50;;;;;;;;;;5073116;28;20031;-77
2022/04/26 12:02:16;;;;;;;10.02;2.97;;;;;;;;;;5080405;28;20369;-74
2022/04/26 12:04:41;;;;;;;10.88;2.95;;;;;;;;;;5082772;28;20028;-74
2022/04/26 12:07:07;;;;;;;8.82;2.65;;;;;;;;;;5081751;28;20020;-71
2022/04/26 12:09:33;;;;;;;10.68;2.90;;;;;;;;;;5072940;28;20472;-67
2022/04/26 12:12:02;;;;;;;12.23;2.95;;;;;;;;;;5074681;28;20031;-73
2022/04/26 12:14:28;;;;;;;9.77;2.85;;;;;;;;;;5080250;28;20028;-71
2022/04/26 12:16:55;;;;;;;10.85;3.20;;;;;;;;;;5082548;28;20304;-70
2022/04/26 12:19:33;;;;;;;12.05;3.00;;;;;;;;;;5083001;28;20030;-74
2022/04/26 12:21:59;;;;;;;13.82;2.83;;;;;;;;;;5082165;28;20191;-75
2022/04/26 12:24:44;;;;;;;10.88;3.10;;;;;;;;;;5083053;28;20029;-74
2022/04/26 12:27:19;;;;;;;17.20;3.40;;;;;;;;;;5082706;28;20037;-72
2022/04/26 12:29:47;;;;;;;13.35;2.90;;;;;;;;;;5083309;28;20020;-72
2022/04/26 12:32:21;;;;;;;16.27;4.13;;;;;;;;;;5082429;28;20223;-71
2022/04/26 12:34:47;;;;;;;12.13;2.85;;;;;;;;;;5082734;28;20504;-74
2022/04/26 12:37:23;;;;;;;18.33;3.53;;;;;;;;;;5082246;28;20082;-73
2022/04/26 12:39:54;;;;;;;7.97;2.85;;;;;;;;;;5082067;28;20028;-73
2022/04/26 12:42:34;;;;;;;9.32;2.80;;;;;;;;;;5081547;28;20045;-70
2022/04/26 12:45:01;;;;;;;12.23;3.50;;;;;;;;;;5082727;28;20031;-70
2022/04/26 12:50:28;;;;;;;15.77;3.30;;;;;;;;;;5082429;28;20109;-72
2022/04/26 12:53:00;;;;;;;17.38;3.58;;;;;;;;;;5081971;28;20028;-72
2022/04/26 12:55:29;;;;;;;16.08;3.92;;;;;;;;;;5082196;28;20202;-72
2022/04/26 12:57:56;;;;;;;16.48;4.07;;;;;;;;;;5081955;28;20231;-73
2022/04/26 13:00:23;;;;;;;17.10;3.95;;;;;;;;;;5082884;28;20296;-73
2022/04/26 13:02:51;;;;;;;12.85;3.58;;;;;;;;;;5081509;28;20028;-73
2022/04/26 13:05:17;;;;;;;15.15;3.58;;;;;;;;;;5080854;28;20055;-72
2022/04/26 13:07:48;;;;;;;14.60;3.58;;;;;;;;;;5081739;28;20228;-74
2022/04/26 13:10:15;;;;;;;17.15;3.83;;;;;;;;;;5082350;28;20268;-72
2022/04/26 13:12:41;;;;;;;11.85;3.47;;;;;;;;;;5081078;28;20054;-74
2022/04/26 13:15:10;;;;;;;18.27;3.53;;;;;;;;;;5081235;28;20036;-73
2022/04/26 13:17:38;;;;;;;20.52;4.13;;;;;;;;;;5076501;28;20028;-70
2022/04/26 13:20:05;;;;;;;13.35;3.40;;;;;;;;;;5064001;28;20086;-70
2022/04/26 13:22:33;;;;;;;14.13;3.28;;;;;;;;;;5072978;28;20063;-71
2022/04/26 13:24:58;;;;;;;13.02;3.50;;;;;;;;;;5079681;28;20145;-71
2022/04/26 13:27:24;;;;;;;12.55;2.92;;;;;;;;;;5068304;28;20446;-71
2022/04/26 13:29:50;;;;;;;14.98;3.72;;;;;;;;;;5080103;28;20120;-72
2022/04/26 13:32:17;;;;;;;12.68;3.20;;;;;;;;;;5079167;28;20032;-70
2022/04/26 13:34:43;;;;;;;15.55;3.35;;;;;;;;;;5074312;28;20040;-71
2022/04/26 13:37:09;;;;;;;15.85;3.30;;;;;;;;;;5076110;28;20319;-71
2022/04/26 13:39:35;;;;;;;12.82;3.08;;;;;;;;;;5073221;28;20032;-72
2022/04/26 13:42:02;;;;;;;13.40;3.05;;;;;;;;;;5068910;28;20041;-73
2022/04/26 13:44:28;;;;;;;10.75;3.35;;;;;;;;;;5068936;28;20572;-70
2022/04/26 13:46:53;;;;;;;12.82;3.30;;;;;;;;;;5069029;28;20116;-70
2022/04/26 13:49:19;;;;;;;10.70;2.95;;;;;;;;;;5069078;28;20020;-73
2022/04/26 13:51:44;;;;;;;18.15;3.60;;;;;;;;;;5064652;28;20110;-73
2022/04/26 13:54:09;;;;;;;12.20;2.90;;;;;;;;;;5069270;28;20032;-71
2022/04/26 13:56:35;;;;;;;13.52;3.28;;;;;;;;;;5069271;28;20027;-72
2022/04/26 13:59:01;;;;;;;12.32;2.97;;;;;;;;;;5068747;28;20091;-72
2022/04/26 14:01:26;;;;;;;16.30;3.05;;;;;;;;;;5068827;28;20438;-72
2022/04/26 14:03:51;;;;;;;10.88;3.22;;;;;;;;;;5068487;28;20025;-71
2022/04/26 14:06:21;;;;;;;14.95;3.28;;;;;;;;;;5069043;28;20046;-71
2022/04/26 14:08:50;;;;;;;14.80;2.93;;;;;;;;;;5068580;28;20580;-73
2022/04/26 14:11:17;;;;;;;14.02;3.33;;;;;;;;;;5068821;28;20109;-71
2022/04/26 14:21:54;;;;;;;16.02;3.22;;;;;;;;;;5070437;28;20526;-73
2022/04/26 14:24:20;;;;;;;17.55;3.10;;;;;;;;;;5070075;28;20036;-71
2022/04/26 14:26:45;;;;;;;16.05;3.20;;;;;;;;;;5070436;28;20078;-70
2022/04/26 14:29:11;;;;;;;14.70;2.90;;;;;;;;;;5070064;28;20024;-69
2022/04/26 14:31:36;;;;;;;16.88;3.15;;;;;;;;;;5070176;28;20047;-74
2022/04/26 14:34:03;;;;;;;15.05;3.58;;;;;;;;;;5070172;28;20048;-73
2022/04/26 14:36:28;;;;;;;14.63;3.10;;;;;;;;;;5070208;28;20021;-73
2022/04/26 14:38:54;;;;;;;13.65;3.15;;;;;;;;;;5069876;28;20082;-72
2022/04/26 14:41:20;;;;;;;16.52;3.00;;;;;;;;;;5069760;28;20105;-72
2022/04/26 14:43:45;;;;;;;15.32;3.53;;;;;;;;;;5069663;28;20032;-69
2022/04/26 14:46:11;;;;;;;16.55;2.95;;;;;;;;;;5052569;28;20048;-72
2022/04/26 14:48:38;;;;;;;11.48;3.05;;;;;;;;;;5069933;28;20455;-72
2022/04/26 14:51:04;;;;;;;13.40;3.08;;;;;;;;;;5070078;28;20078;-73
2022/04/26 14:53:30;;;;;;;15.90;3.60;;;;;;;;;;5069508;28;20024;-72
2022/04/26 14:55:57;;;;;;;14.18;3.28;;;;;;;;;;5069926;28;20028;-72
2022/04/26 14:58:23;;;;;;;17.95;3.58;;;;;;;;;;5069863;28;20403;-72
2022/04/26 15:00:49;;;;;;;17.48;3.80;;;;;;;;;;5069946;28;20028;-72
2022/04/26 15:03:14;;;;;;;16.58;3.72;;;;;;;;;;5069350;28;20158;-74
2022/04/26 15:05:40;;;;;;;16.27;3.47;;;;;;;;;;5069988;28;20031;-73
2022/04/26 15:10:49;;;;;;;14.23;3.28;;;;;;;;;;5069700;28;20127;-73
2022/04/26 15:18:43;;;;;;;17.65;3.60;;;;;;;;;;5069724;28;20031;-72
2022/04/26 15:21:09;;;;;;;14.57;3.25;;;;;;;;;;5069785;28;20099;-72
2022/04/26 15:23:35;;;;;;;12.63;3.10;;;;;;;;;;5069273;28;20035;-72
2022/04/26 15:26:03;;;;;;;12.90;3.28;;;;;;;;;;5069783;28;20032;-74
2022/04/26 15:28:29;;;;;;;12.73;3.22;;;;;;;;;;5072633;28;20017;-73
2022/04/26 15:30:55;;;;;;;14.23;3.03;;;;;;;;;;5073382;28;20029;-70
2022/04/26 15:33:22;;;;;;;15.40;3.67;;;;;;;;;;5073366;28;20024;-71
2022/04/26 15:35:48;;;;;;;10.77;2.88;;;;;;;;;;5073565;28;20021;-72
2022/04/26 15:38:14;;;;;;;16.45;3.53;;;;;;;;;;5073684;28;20044;-73
2022/04/26 15:40:41;;;;;;;15.70;3.30;;;;;;;;;;5073318;28;20045;-71
2022/04/26 15:43:08;;;;;;;11.55;3.17;;;;;;;;;;5073069;28;20036;-73
2022/04/26 15:45:34;;;;;;;13.93;3.40;;;;;;;;;;5072798;28;20025;-73
2022/04/26 15:48:00;;;;;;;14.55;3.47;;;;;;;;;;5073338;28;20033;-73
2022/04/26 15:50:27;;;;;;;18.60;4.07;;;;;;;;;;5073212;28;20035;-74
2022/04/26 15:52:52;;;;;;;12.25;3.67;;;;;;;;;;5073045;28;20395;-72
2022/04/26 15:55:18;;;;;;;13.60;3.92;;;;;;;;;;5073080;28;20025;-71
2022/04/26 15:57:46;;;;;;;16.15;3.58;;;;;;;;;;5073451;28;20020;-69
2022/04/26 16:00:13;;;;;;;13.93;3.17;;;;;;;;;;5072893;28;20100;-72
2022/04/26 16:02:40;;;;;;;16.90;3.22;;;;;;;;;;5072513;28;20478;-73
2022/04/26 16:05:07;;;;;;;13.80;3.60;;;;;;;;;;5072852;28;20566;-73
2022/04/26 16:07:32;;;;;;;11.98;3.45;;;;;;;;;;5073966;28;20020;-74
2022/04/26 16:20:53;;;;;;;12.85;3.33;;;;;;;;;;5072535;28;20035;-74
2022/04/26 16:23:19;;;;;;;11.35;3.30;;;;;;;;;;5072285;28;20025;-72
2022/04/26 16:25:45;;;;;;;12.80;3.60;;;;;;;;;;5072523;28;20222;-72
2022/04/26 16:28:11;;;;;;;14.35;3.47;;;;;;;;;;5072779;28;20032;-74
2022/04/26 16:30:40;;;;;;;13.90;3.70;;;;;;;;;;5072407;28;20021;-74
2022/04/26 16:33:06;;;;;;;14.77;3.42;;;;;;;;;;5072273;28;20047;-71
2022/04/26 16:35:32;;;;;;;13.88;3.25;;;;;;;;;;5072362;28;20033;-73
2022/04/26 16:37:57;;;;;;;12.40;3.33;;;;;;;;;;5072038;28;20063;-74
2022/04/26 16:40:23;;;;;;;11.93;3.53;;;;;;;;;;5071196;28;20072;-70
2022/04/26 16:42:50;;;;;;;15.25;3.47;;;;;;;;;;5071938;28;20021;-73
2022/04/26 16:45:16;;;;;;;14.05;3.30;;;;;;;;;;5071647;28;20054;-71
2022/04/26 16:47:41;;;;;;;14.45;3.47;;;;;;;;;;5072240;28;20020;-69
2022/04/26 16:50:07;;;;;;;12.75;3.83;;;;;;;;;;5071911;28;20031;-69
2022/04/26 16:52:35;;;;;;;15.55;3.63;;;;;;;;;;5071812;28;20062;-72
2022/04/26 16:55:00;;;;;;;11.02;3.33;;;;;;;;;;5071799;28;20035;-69
2022/04/26 16:57:28;;;;;;;15.50;3.60;;;;;;;;;;5071987;28;20029;-67
2022/04/26 16:59:56;;;;;;;16.58;3.85;;;;;;;;;;5071537;28;20162;-67
2022/04/26 17:02:23;;;;;;;14.60;4.30;;;;;;;;;;5053686;28;20035;-69
2022/04/26 17:04:48;;;;;;;17.02;3.63;;;;;;;;;;5071606;28;20024;-73
2022/04/26 17:07:14;;;;;;;14.18;3.20;;;;;;;;;;5061288;28;20388;-73
2022/04/26 17:09:39;;;;;;;17.73;4.00;;;;;;;;;;5069578;28;20038;-74
2022/04/26 17:12:05;;;;;;;10.68;3.35;;;;;;;;;;5059305;28;20481;-72
2022/04/26 17:14:32;;;;;;;15.45;3.28;;;;;;;;;;5067914;28;20048;-72
2022/04/26 17:16:58;;;;;;;14.48;3.40;;;;;;;;;;5038124;28;20090;-71
2022/04/26 17:19:23;;;;;;;14.07;3.15;;;;;;;;;;5069916;28;20480;-72
2022/04/26 17:21:49;;;;;;;15.90;3.28;;;;;;;;;;5069360;28;20100;-71
2022/04/26 17:26:59;;;;;;;15.13;3.22;;;;;;;;;;5057622;28;20636;-73
2022/04/26 17:29:25;;;;;;;13.98;3.40;;;;;;;;;;5069216;28;20032;-72
2022/04/26 17:31:54;;;;;;;14.25;3.40;;;;;;;;;;5069255;28;20100;-73
2022/04/26 17:34:20;;;;;;;13.05;3.33;;;;;;;;;;5050880;28;20024;-73
2022/04/26 17:36:46;;;;;;;19.13;3.92;;;;;;;;;;5071953;28;20032;-73
2022/04/26 17:39:12;;;;;;;16.23;3.90;;;;;;;;;;5069540;28;20024;-74
2022/04/26 17:41:39;;;;;;;9.32;3.20;;;;;;;;;;5069336;28;20053;-70
2022/04/26 17:44:05;;;;;;;11.82;3.13;;;;;;;;;;5068882;28;20028;-71
2022/04/26 17:46:31;;;;;;;12.85;3.33;;;;;;;;;;5069013;28;20031;-72
2022/04/26 17:48:56;;;;;;;10.13;3.17;;;;;;;;;;5069166;28;20028;-71
2022/04/26 17:51:21;;;;;;;17.92;3.58;;;;;;;;;;5068832;28;20038;-72
2022/04/26 17:56:32;;;;;;;10.15;3.47;;;;;;;;;;5057028;28;20506;-72
2022/04/26 17:58:58;;;;;;;15.57;3.42;;;;;;;;;;5069249;28;20123;-73
2022/04/26 18:01:24;;;;;;;16.35;3.65;;;;;;;;;;5068820;28;20060;-73
2022/04/26 18:03:49;;;;;;;14.52;3.53;;;;;;;;;;5068606;28;20036;-72
2022/04/26 18:06:17;;;;;;;13.85;3.75;;;;;;;;;;5068637;28;20035;-72
2022/04/26 18:08:43;;;;;;;14.40;3.45;;;;;;;;;;5068969;28;20024;-71
2022/04/26 18:11:09;;;;;;;11.52;3.65;;;;;;;;;;5068861;28;20024;-71
2022/04/26 18:13:35;;;;;;;17.65;3.58;;;;;;;;;;5068847;28;20020;-74
2022/04/26 18:16:02;;;;;;;13.10;3.33;;;;;;;;;;5068352;28;20036;-72
2022/04/26 18:18:28;;;;;;;11.25;3.47;;;;;;;;;;5068724;28;20033;-74
2022/04/26 18:20:54;;;;;;;12.73;3.58;;;;;;;;;;5068516;28;20020;-72
2022/04/26 18:23:20;;;;;;;15.70;3.55;;;;;;;;;;5068208;28;20090;-72
2022/04/26 18:28:31;;;;;;;13.73;3.28;;;;;;;;;;5069610;28;20062;-72
2022/04/26 18:30:59;;;;;;;15.00;3.58;;;;;;;;;;5069834;28;20033;-72
2022/04/26 18:33:25;;;;;;;11.20;3.13;;;;;;;;;;5069979;28;20028;-73
2022/04/26 18:35:50;;;;;;;8.15;2.80;;;;;;;;;;5069862;28;20074;-70
2022/04/26 18:38:16;;;;;;;11.23;3.28;;;;;;;;;;5070132;28;20020;-69
2022/04/26 18:40:41;;;;;;;10.35;3.50;;;;;;;;;;5069687;28;20044;-71
2022/04/26 18:43:07;;;;;;;12.95;3.05;;;;;;;;;;5069584;28;20086;-70
2022/04/26 18:45:32;;;;;;;13.32;3.40;;;;;;;;;;5069749;28;20100;-71
2022/04/26 18:47:58;;;;;;;10.30;2.97;;;;;;;;;;5070190;28;20038;-70
2022/04/26 18:50:24;;;;;;;10.88;3.05;;;;;;;;;;5069886;28;20100;-70
2022/04/26 18:52:49;;;;;;;14.70;3.35;;;;;;;;;;5056513;28;20070;-70
2022/04/26 18:55:15;;;;;;;13.57;3.65;;;;;;;;;;5069529;28;20408;-69
2022/04/26 18:57:40;;;;;;;11.70;3.30;;;;;;;;;;5069510;28;20027;-70
2022/04/26 19:00:06;;;;;;;13.55;3.40;;;;;;;;;;5069604;28;20024;-70
2022/04/26 19:02:32;;;;;;;7.25;2.90;;;;;;;;;;5069269;28;20033;-70
2022/04/26 19:04:57;;;;;;;10.18;3.40;;;;;;;;;;5069558;28;20024;-69
2022/04/26 19:07:23;;;;;;;11.68;3.33;;;;;;;;;;5069513;28;21149;-69